createdAt,value
2022-12-01T00:01:35.868Z,8.37
2022-12-01T00:04:07.453Z,8.37
2022-12-01T00:06:37.463Z,8.35
2022-12-01T00:09:25.023Z,8.43
2022-12-01T00:11:54.774Z,8.25
2022-12-01T00:14:21.720Z,8.40
2022-12-01T00:16:54.144Z,8.28
2022-12-01T00:19:25.753Z,8.09
2022-12-01T00:21:55.057Z,7.97
2022-12-01T00:24:25.365Z,7.99
2022-12-01T00:26:54.736Z,8.26
2022-12-01T00:29:22.070Z,8.05
2022-12-01T00:31:49.128Z,8.09
2022-12-01T00:34:24.498Z,8.12
2022-12-01T00:36:54.016Z,8.07
2022-12-01T00:39:21.243Z,8.05
2022-12-01T00:41:48.234Z,8.02
2022-12-01T00:44:18.467Z,7.74
2022-12-01T00:46:45.891Z,7.74
2022-12-01T00:49:13.841Z,7.81
2022-12-01T00:51:43.284Z,7.91
2022-12-01T00:54:10.222Z,7.96
2022-12-01T00:56:37.323Z,7.85
2022-12-01T00:59:04.309Z,7.83
2022-12-01T01:01:31.447Z,7.69
2022-12-01T01:03:58.815Z,7.89
2022-12-01T01:06:28.854Z,7.82
2022-12-01T01:09:01.378Z,7.93
2022-12-01T01:11:30.429Z,7.99
2022-12-01T01:14:01.763Z,7.84
2022-12-01T01:16:31.434Z,7.76
2022-12-01T01:18:58.714Z,7.58
2022-12-01T01:21:26.784Z,7.65
2022-12-01T01:23:55.579Z,7.57
2022-12-01T01:26:28.596Z,7.33
2022-12-01T01:29:03.479Z,7.55
2022-12-01T01:31:33.243Z,7.55
2022-12-01T01:34:05.879Z,7.43
2022-12-01T01:36:33.096Z,7.53
2022-12-01T01:39:01.762Z,7.65
2022-12-01T01:41:29.039Z,7.52
2022-12-01T01:44:02.997Z,7.45
2022-12-01T01:46:34.523Z,7.31
2022-12-01T01:49:22.571Z,7.39
2022-12-01T01:51:55.248Z,7.28
2022-12-01T01:54:51.408Z,7.25
2022-12-01T01:57:31.257Z,7.19
2022-12-01T02:00:14.605Z,6.96
2022-12-01T02:02:44.830Z,7.18
2022-12-01T02:05:27.582Z,7.12
2022-12-01T02:07:57.963Z,6.38
2022-12-01T02:10:56.786Z,6.10
2022-12-01T02:14:06.176Z,6.22
2022-12-01T02:16:55.402Z,6.32
2022-12-01T02:19:43.174Z,6.35
2022-12-01T02:22:42.895Z,6.22
2022-12-01T02:26:02.235Z,6.53
2022-12-01T02:29:02.737Z,6.59
2022-12-01T02:31:52.112Z,6.83
2022-12-01T02:34:47.029Z,6.54
2022-12-01T02:37:32.096Z,6.33
2022-12-01T02:40:24.003Z,6.30
2022-12-01T02:43:13.191Z,6.39
2022-12-01T02:46:11.395Z,6.20
2022-12-01T02:48:43.100Z,6.24
2022-12-01T02:51:33.847Z,6.33
2022-12-01T02:54:03.171Z,6.46
2022-12-01T02:56:30.102Z,6.57
2022-12-01T02:58:57.183Z,6.45
2022-12-01T03:01:39.277Z,6.33
2022-12-01T03:04:15.415Z,6.52
2022-12-01T03:06:52.411Z,6.33
2022-12-01T03:10:06.087Z,6.67
2022-12-01T03:12:47.488Z,6.61
2022-12-01T03:15:41.445Z,6.53
2022-12-01T03:18:32.455Z,6.54
2022-12-01T03:21:20.084Z,6.70
2022-12-01T03:24:02.771Z,6.79
2022-12-01T03:26:37.059Z,6.64
2022-12-01T03:29:19.132Z,6.48
2022-12-01T03:31:57.024Z,6.45
2022-12-01T03:34:26.745Z,6.32
2022-12-01T03:37:01.353Z,6.12
2022-12-01T03:39:35.435Z,6.02
2022-12-01T03:42:16.073Z,5.92
2022-12-01T03:44:57.760Z,5.79
2022-12-01T03:47:32.364Z,6.05
2022-12-01T03:50:00.666Z,6.40
2022-12-01T03:52:46.859Z,6.47
2022-12-01T03:55:32.318Z,6.60
2022-12-01T03:58:44.898Z,6.17
2022-12-01T04:01:14.581Z,6.32
2022-12-01T04:03:47.969Z,5.97
2022-12-01T04:06:18.163Z,6.25
2022-12-01T04:08:45.256Z,6.46
2022-12-01T04:11:32.858Z,6.66
2022-12-01T04:14:03.001Z,6.56
2022-12-01T04:16:32.412Z,6.33
2022-12-01T04:18:59.367Z,6.53
2022-12-01T04:21:28.462Z,6.59
2022-12-01T04:24:01.602Z,6.38
2022-12-01T04:26:34.535Z,6.68
2022-12-01T04:29:07.959Z,6.41
2022-12-01T04:31:37.543Z,6.35
2022-12-01T04:34:09.658Z,6.32
2022-12-01T04:36:36.631Z,6.24
2022-12-01T04:39:06.309Z,6.22
2022-12-01T04:41:35.571Z,6.36
2022-12-01T04:44:05.263Z,6.41
2022-12-01T04:46:32.305Z,6.61
2022-12-01T04:48:59.236Z,6.22
2022-12-01T04:51:31.036Z,6.37
2022-12-01T04:53:58.086Z,6.54
2022-12-01T04:56:25.133Z,6.51
2022-12-01T04:58:52.235Z,6.82
2022-12-01T05:01:22.703Z,6.58
2022-12-01T05:03:52.270Z,6.10
2022-12-01T05:06:23.864Z,6.03
2022-12-01T05:08:51.958Z,6.00
2022-12-01T05:11:23.834Z,5.98
2022-12-01T05:13:51.180Z,5.91
2022-12-01T05:16:23.316Z,6.21
2022-12-01T05:19:20.923Z,6.19
2022-12-01T05:21:51.806Z,6.51
2022-12-01T05:24:22.888Z,6.45
2022-12-01T05:26:49.834Z,6.26
2022-12-01T05:29:19.475Z,6.25
2022-12-01T05:31:47.353Z,6.11
2022-12-01T05:34:14.749Z,6.08
2022-12-01T05:36:42.038Z,6.36
2022-12-01T05:39:09.433Z,6.06
2022-12-01T05:41:36.737Z,6.06
2022-12-01T05:44:04.207Z,5.74
2022-12-01T05:46:33.611Z,5.87
2022-12-01T05:49:03.367Z,5.98
2022-12-01T05:51:33.399Z,5.89
2022-12-01T05:54:01.952Z,6.04
2022-12-01T05:56:29.018Z,6.26
2022-12-01T05:58:56.220Z,5.61
2022-12-01T06:01:23.376Z,5.53
2022-12-01T06:03:52.586Z,5.27
2022-12-01T06:06:20.248Z,5.34
2022-12-01T06:08:52.821Z,5.43
2022-12-01T06:11:20.161Z,5.70
2022-12-01T06:13:47.028Z,5.72
2022-12-01T06:16:13.992Z,5.58
2022-12-01T06:18:40.977Z,5.63
2022-12-01T06:21:08.115Z,5.69
2022-12-01T06:23:37.483Z,5.74
2022-12-01T06:26:07.365Z,5.43
2022-12-01T06:28:34.619Z,5.18
2022-12-01T06:31:09.037Z,5.28
2022-12-01T06:33:38.152Z,5.64
2022-12-01T06:36:07.011Z,5.78
2022-12-01T06:38:37.786Z,5.80
2022-12-01T06:41:08.432Z,5.72
2022-12-01T06:43:38.655Z,6.04
2022-12-01T06:46:08.692Z,5.98
2022-12-01T06:48:35.738Z,5.99
2022-12-01T06:51:03.223Z,5.97
2022-12-01T06:53:33.066Z,5.82
2022-12-01T06:56:04.817Z,5.97
2022-12-01T06:58:34.926Z,5.96
2022-12-01T07:01:12.160Z,6.07
2022-12-01T07:03:47.458Z,5.99
2022-12-01T07:06:14.583Z,5.94
2022-12-01T07:08:41.624Z,5.98
2022-12-01T07:11:15.010Z,6.08
2022-12-01T07:13:45.268Z,6.01
2022-12-01T07:16:12.775Z,5.95
2022-12-01T07:18:40.491Z,6.01
2022-12-01T07:21:13.210Z,6.00
2022-12-01T07:23:43.094Z,5.99
2022-12-01T07:26:12.564Z,6.13
2022-12-01T07:28:39.603Z,6.34
2022-12-01T07:31:18.744Z,6.17
2022-12-01T07:33:45.963Z,6.19
2022-12-01T07:36:13.954Z,6.28
2022-12-01T07:38:41.662Z,6.53
2022-12-01T07:41:19.071Z,6.52
2022-12-01T07:43:49.981Z,6.54
2022-12-01T07:46:24.218Z,6.42
2022-12-01T07:48:52.924Z,6.35
2022-12-01T07:51:24.263Z,5.79
2022-12-01T07:53:55.098Z,5.53
2022-12-01T07:56:23.138Z,5.36
2022-12-01T07:58:52.609Z,5.48
2022-12-01T08:01:23.839Z,5.37
2022-12-01T08:03:54.303Z,5.51
2022-12-01T08:06:22.656Z,5.81
2022-12-01T08:08:50.241Z,5.72
2022-12-01T08:11:24.829Z,5.73
2022-12-01T08:13:54.588Z,5.76
2022-12-01T08:16:25.809Z,5.61
2022-12-01T08:18:53.450Z,5.74
2022-12-01T08:21:23.634Z,5.34
2022-12-01T08:23:56.533Z,5.14
2022-12-01T08:26:25.749Z,5.31
2022-12-01T08:28:52.812Z,5.23
2022-12-01T08:31:29.016Z,5.60
2022-12-01T08:33:56.379Z,5.54
2022-12-01T08:36:26.317Z,5.16
2022-12-01T08:38:55.855Z,5.21
2022-12-01T08:41:24.638Z,5.14
2022-12-01T08:43:59.820Z,5.28
2022-12-01T08:46:32.410Z,4.89
2022-12-01T08:49:04.028Z,4.99
2022-12-01T08:51:33.901Z,5.02
2022-12-01T08:54:03.372Z,5.10
2022-12-01T08:56:44.349Z,4.96
2022-12-01T08:59:11.966Z,5.31
2022-12-01T09:01:53.571Z,5.54
2022-12-01T09:04:25.168Z,5.74
2022-12-01T09:06:54.983Z,5.64
2022-12-01T09:09:28.447Z,5.64
2022-12-01T09:11:59.947Z,5.65
2022-12-01T09:14:29.929Z,5.67
2022-12-01T09:16:57.093Z,5.64
2022-12-01T09:19:28.516Z,5.59
2022-12-01T09:21:55.506Z,5.57
2022-12-01T09:24:23.114Z,5.60
2022-12-01T09:26:50.413Z,5.76
2022-12-01T09:29:17.497Z,5.95
2022-12-01T09:31:47.218Z,6.10
2022-12-01T09:34:19.819Z,6.13
2022-12-01T09:36:47.842Z,6.23
2022-12-01T09:39:21.188Z,6.12
2022-12-01T09:42:09.183Z,5.72
2022-12-01T09:44:39.093Z,5.34
2022-12-01T09:47:40.118Z,5.35
2022-12-01T09:50:24.076Z,5.40
2022-12-01T09:53:08.918Z,4.96
2022-12-01T09:55:36.273Z,4.65
2022-12-01T09:58:07.290Z,4.61
2022-12-01T10:00:44.016Z,4.85
2022-12-01T10:03:36.451Z,4.70
2022-12-01T10:06:28.499Z,4.65
2022-12-01T10:09:30.147Z,4.79
2022-12-01T10:12:16.905Z,4.79
2022-12-01T10:14:50.459Z,4.81
2022-12-01T10:18:05.383Z,5.17
2022-12-01T10:20:41.386Z,5.16
2022-12-01T10:23:39.607Z,5.08
2022-12-01T10:26:31.407Z,5.06
2022-12-01T10:29:07.051Z,5.20
2022-12-01T10:32:03.292Z,5.40
2022-12-01T10:34:42.215Z,5.34
2022-12-01T10:37:28.050Z,5.51
2022-12-01T10:40:00.443Z,4.85
2022-12-01T10:42:39.567Z,4.74
2022-12-01T10:45:24.206Z,4.71
2022-12-01T10:48:23.527Z,5.05
2022-12-01T10:51:13.913Z,5.16
2022-12-01T10:53:41.051Z,4.63
2022-12-01T10:56:10.981Z,5.00
2022-12-01T10:58:50.117Z,4.84
2022-12-01T11:01:26.850Z,5.02
2022-12-01T11:04:35.518Z,5.28
2022-12-01T11:07:04.211Z,5.06
2022-12-01T11:09:35.896Z,4.91
2022-12-01T11:12:05.129Z,5.26
2022-12-01T11:14:47.952Z,5.30
2022-12-01T11:17:40.173Z,5.36
2022-12-01T11:20:40.012Z,5.28
2022-12-01T11:23:10.053Z,5.10
2022-12-01T11:25:38.108Z,5.15
2022-12-01T11:28:09.084Z,5.29
2022-12-01T11:30:36.169Z,5.30
2022-12-01T11:33:05.668Z,5.32
2022-12-01T11:35:37.995Z,5.48
2022-12-01T11:38:29.322Z,5.42
2022-12-01T11:41:00.894Z,5.56
2022-12-01T11:43:30.678Z,5.69
2022-12-01T11:46:03.688Z,5.72
2022-12-01T11:48:36.869Z,5.34
2022-12-01T11:51:27.054Z,5.05
2022-12-01T11:54:28.142Z,4.75
2022-12-01T11:57:31.869Z,4.62
2022-12-01T11:59:42.572Z,5.03
2022-12-01T12:02:53.352Z,5.40
2022-12-01T12:05:42.780Z,5.32
2022-12-01T12:08:58.636Z,5.21
2022-12-01T12:12:02.010Z,5.01
2022-12-01T12:14:55.145Z,4.90
2022-12-01T12:17:58.297Z,5.30
2022-12-01T12:20:41.076Z,5.50
2022-12-01T12:23:44.851Z,5.60
2022-12-01T12:26:24.428Z,5.60
2022-12-01T12:29:03.286Z,5.65
2022-12-01T12:31:33.069Z,5.68
2022-12-01T12:34:22.319Z,5.60
2022-12-01T12:37:41.894Z,5.34
2022-12-01T12:40:24.719Z,5.81
2022-12-01T12:43:04.138Z,5.78
2022-12-01T12:46:11.415Z,5.69
2022-12-01T12:52:08.116Z,5.47
2022-12-01T12:55:12.326Z,5.40
2022-12-01T12:57:58.293Z,5.62
2022-12-01T13:00:30.086Z,5.51
2022-12-01T13:03:12.481Z,5.38
2022-12-01T13:05:52.861Z,5.67
2022-12-01T13:08:48.282Z,5.73
2022-12-01T13:11:41.205Z,5.81
2022-12-01T13:14:39.435Z,6.05
2022-12-01T13:17:23.417Z,6.07
2022-12-01T13:19:50.671Z,6.06
2022-12-01T13:22:24.301Z,6.12
2022-12-01T13:24:51.344Z,6.17
2022-12-01T13:27:24.260Z,6.12
2022-12-01T13:29:54.379Z,6.29
2022-12-01T13:32:34.864Z,6.37
2022-12-01T13:35:08.391Z,6.34
2022-12-01T13:37:38.587Z,6.41
2022-12-01T13:40:19.399Z,6.27
2022-12-01T13:45:49.830Z,5.93
2022-12-01T13:48:40.456Z,6.18
2022-12-01T13:51:07.572Z,6.13
2022-12-01T13:53:40.628Z,6.21
2022-12-01T13:56:39.376Z,5.92
2022-12-01T14:00:00.727Z,5.69
2022-12-01T14:02:33.460Z,5.59
2022-12-01T14:05:22.241Z,5.61
2022-12-01T14:07:56.750Z,5.59
2022-12-01T14:10:53.240Z,5.43
2022-12-01T14:13:22.621Z,5.57
2022-12-01T14:16:03.849Z,5.65
2022-12-01T14:18:35.160Z,5.87
2022-12-01T14:21:08.922Z,5.72
2022-12-01T14:23:58.807Z,5.69
2022-12-01T14:26:28.537Z,6.04
2022-12-01T14:28:57.572Z,5.96
2022-12-01T14:31:49.823Z,5.79
2022-12-01T14:34:28.640Z,5.82
2022-12-01T14:37:03.830Z,5.49
2022-12-01T14:39:42.422Z,5.56
2022-12-01T14:42:43.392Z,5.35
2022-12-01T14:45:22.598Z,5.31
2022-12-01T14:48:20.143Z,5.34
2022-12-01T14:51:05.840Z,5.51
2022-12-01T14:53:36.633Z,5.23
2022-12-01T14:56:26.033Z,5.07
2022-12-01T14:59:01.742Z,5.27
2022-12-01T15:01:40.213Z,5.41
2022-12-01T15:04:11.659Z,5.21
2022-12-01T15:06:38.971Z,5.33
2022-12-01T15:12:07.689Z,5.07
2022-12-01T15:14:47.961Z,5.14
2022-12-01T15:17:37.044Z,5.07
2022-12-01T15:20:31.961Z,5.32
2022-12-01T15:23:00.182Z,5.38
2022-12-01T15:25:35.320Z,5.29
2022-12-01T15:28:22.614Z,5.23
2022-12-01T15:30:54.816Z,5.17
2022-12-01T15:33:36.960Z,5.57
2022-12-01T15:36:05.644Z,5.64
2022-12-01T15:38:37.258Z,5.58
2022-12-01T15:41:29.623Z,5.78
2022-12-01T15:44:08.303Z,5.31
2022-12-01T15:46:35.187Z,5.21
2022-12-01T15:49:27.931Z,5.08
2022-12-01T15:52:10.394Z,5.14
2022-12-01T15:54:38.266Z,5.23
2022-12-01T15:57:06.886Z,5.14
2022-12-01T15:59:44.791Z,5.35
2022-12-01T16:02:31.929Z,5.37
2022-12-01T16:05:22.364Z,5.30
2022-12-01T16:10:41.507Z,5.28
2022-12-01T16:13:48.899Z,5.21
2022-12-01T16:17:03.153Z,5.20
2022-12-01T16:19:35.965Z,5.09
2022-12-01T16:22:11.790Z,5.19
2022-12-01T16:24:53.579Z,5.36
2022-12-01T16:27:31.731Z,5.08
2022-12-01T16:30:03.573Z,5.26
2022-12-01T16:32:41.362Z,5.19
2022-12-01T16:35:30.877Z,5.63
2022-12-01T16:37:59.238Z,5.68
2022-12-01T16:40:31.794Z,5.57
2022-12-01T16:43:00.818Z,5.49
2022-12-01T16:45:27.675Z,5.66
2022-12-01T16:48:03.565Z,5.82
2022-12-01T16:50:33.922Z,5.93
2022-12-01T16:53:00.900Z,5.97
2022-12-01T16:55:41.855Z,6.00
2022-12-01T16:58:09.368Z,6.04
2022-12-01T17:00:38.621Z,6.14
2022-12-01T17:03:07.304Z,6.17
2022-12-01T17:05:34.713Z,6.22
2022-12-01T17:08:04.200Z,6.30
2022-12-01T17:10:34.230Z,6.15
2022-12-01T17:13:05.972Z,6.28
2022-12-01T17:15:33.072Z,6.20
2022-12-01T17:18:00.351Z,6.08
2022-12-01T17:20:29.342Z,5.89
2022-12-01T17:22:56.369Z,5.80
2022-12-01T17:25:23.326Z,5.80
2022-12-01T17:27:52.687Z,5.95
2022-12-01T17:30:19.629Z,5.88
2022-12-01T17:32:49.250Z,5.98
2022-12-01T17:35:19.284Z,5.94
2022-12-01T17:37:49.270Z,5.89
2022-12-01T17:40:18.520Z,5.80
2022-12-01T17:42:50.277Z,5.65
2022-12-01T17:45:18.975Z,5.75
2022-12-01T17:47:46.287Z,5.95
2022-12-01T17:50:13.577Z,6.21
2022-12-01T17:52:40.964Z,6.31
2022-12-01T17:55:09.269Z,6.10
2022-12-01T17:57:36.216Z,6.18
2022-12-01T18:00:07.567Z,6.17
2022-12-01T18:02:39.241Z,6.17
2022-12-01T18:05:06.888Z,6.27
2022-12-01T18:07:34.044Z,6.30
2022-12-01T18:10:00.997Z,6.28
2022-12-01T18:12:28.023Z,5.90
2022-12-01T18:14:54.990Z,5.84
2022-12-01T18:17:24.024Z,5.77
2022-12-01T18:19:54.060Z,5.76
2022-12-01T18:22:25.621Z,5.82
2022-12-01T18:24:57.629Z,5.87
2022-12-01T18:27:27.218Z,6.03
2022-12-01T18:29:54.219Z,6.13
2022-12-01T18:32:21.359Z,6.14
2022-12-01T18:34:48.768Z,6.28
2022-12-01T18:37:16.082Z,5.97
2022-12-01T18:39:43.039Z,5.88
2022-12-01T18:42:10.070Z,6.17
2022-12-01T18:44:38.879Z,6.18
2022-12-01T18:47:06.614Z,6.07
2022-12-01T18:49:33.811Z,6.09
2022-12-01T18:52:00.808Z,6.36
2022-12-01T18:54:27.960Z,6.29
2022-12-01T18:56:58.651Z,6.25
2022-12-01T18:59:33.278Z,6.27
2022-12-01T19:02:03.540Z,6.34
2022-12-01T19:04:32.965Z,6.14
2022-12-01T19:06:59.995Z,6.06
2022-12-01T19:09:27.008Z,6.15
2022-12-01T19:11:59.718Z,6.09
2022-12-01T19:14:29.283Z,5.82
2022-12-01T19:16:59.664Z,6.05
2022-12-01T19:19:33.004Z,5.95
2022-12-01T19:22:05.124Z,5.81
2022-12-01T19:24:32.479Z,5.78
2022-12-01T19:26:59.570Z,5.83
2022-12-01T19:29:26.626Z,5.95
2022-12-01T19:31:56.222Z,6.01
2022-12-01T19:34:23.420Z,6.09
2022-12-01T19:36:52.354Z,6.24
2022-12-01T19:39:22.419Z,6.23
2022-12-01T19:41:49.455Z,5.82
2022-12-01T19:44:16.823Z,5.99
2022-12-01T19:46:46.790Z,6.08
2022-12-01T19:49:14.865Z,6.02
2022-12-01T19:51:44.571Z,6.20
2022-12-01T19:54:17.705Z,6.19
2022-12-01T19:56:44.980Z,6.19
2022-12-01T19:59:14.374Z,6.17
2022-12-01T20:01:42.255Z,6.13
2022-12-01T20:04:11.844Z,6.22
2022-12-01T20:06:38.984Z,5.89
2022-12-01T20:09:07.912Z,5.75
2022-12-01T20:11:37.876Z,5.81
2022-12-01T20:14:11.718Z,5.58
2022-12-01T20:16:42.304Z,5.59
2022-12-01T20:19:14.757Z,5.55
2022-12-01T20:21:45.271Z,5.54
2022-12-01T20:24:15.195Z,5.64
2022-12-01T20:26:51.933Z,5.64
2022-12-01T20:29:27.233Z,5.57
2022-12-01T20:31:57.901Z,5.79
2022-12-01T20:34:37.295Z,5.73
2022-12-01T20:37:04.810Z,5.56
2022-12-01T20:39:34.984Z,5.77
2022-12-01T20:42:03.521Z,5.89
2022-12-01T20:44:33.082Z,5.88
2022-12-01T20:47:00.332Z,5.74
2022-12-01T20:49:33.036Z,5.68
2022-12-01T20:52:03.035Z,5.67
2022-12-01T20:54:31.118Z,5.69
2022-12-01T20:56:59.377Z,5.69
2022-12-01T20:59:30.240Z,5.59
2022-12-01T21:02:03.545Z,5.81
2022-12-01T21:04:30.542Z,5.68
2022-12-01T21:07:00.271Z,5.61
2022-12-01T21:09:28.519Z,5.47
2022-12-01T21:12:17.347Z,5.50
2022-12-01T21:15:30.303Z,5.63
2022-12-01T21:18:29.192Z,5.71
2022-12-01T21:21:07.970Z,5.64
2022-12-01T21:23:35.401Z,5.76
2022-12-01T21:26:11.859Z,5.56
2022-12-01T21:28:38.972Z,5.37
2022-12-01T21:31:16.175Z,5.39
2022-12-01T21:33:43.578Z,5.38
2022-12-01T21:36:22.530Z,5.34
2022-12-01T21:38:57.928Z,5.43
2022-12-01T21:41:28.584Z,5.59
2022-12-01T21:44:21.193Z,5.70
2022-12-01T21:46:55.244Z,5.51
2022-12-01T21:49:35.700Z,5.58
2022-12-01T21:52:09.752Z,5.65
2022-12-01T21:54:36.653Z,5.54
2022-12-01T21:57:26.404Z,5.36
2022-12-01T22:00:01.110Z,5.45
2022-12-01T22:03:20.452Z,5.50
2022-12-01T22:06:27.699Z,4.98
2022-12-01T22:08:50.849Z,4.87
2022-12-01T22:11:22.252Z,4.86
2022-12-01T22:14:05.065Z,5.00
2022-12-01T22:16:34.265Z,4.94
2022-12-01T22:19:31.971Z,4.83
2022-12-01T22:22:15.653Z,4.43
2022-12-01T22:24:54.045Z,4.38
2022-12-01T22:27:43.956Z,4.32
2022-12-01T22:30:17.796Z,4.39
2022-12-01T22:33:00.673Z,4.37
2022-12-01T22:35:34.493Z,4.57
2022-12-01T22:38:28.320Z,4.72
2022-12-01T22:41:06.885Z,4.66
2022-12-01T22:43:41.816Z,4.89
2022-12-01T22:46:34.030Z,4.92
2022-12-01T22:49:10.161Z,4.53
2022-12-01T22:51:41.488Z,4.56
2022-12-01T22:54:14.562Z,4.40
2022-12-01T22:57:02.175Z,4.27
2022-12-01T22:59:35.229Z,4.41
2022-12-01T23:02:29.233Z,4.35
2022-12-01T23:05:01.047Z,4.60
2022-12-01T23:07:36.901Z,4.44
2022-12-01T23:10:18.740Z,4.55
2022-12-01T23:12:49.405Z,4.55
2022-12-01T23:15:39.000Z,4.21
2022-12-01T23:18:19.418Z,4.43
2022-12-01T23:21:07.359Z,4.62
2022-12-01T23:23:39.386Z,4.66
2022-12-01T23:26:08.784Z,4.90
2022-12-01T23:28:39.214Z,4.81
2022-12-01T23:31:06.765Z,4.96
2022-12-01T23:33:35.378Z,5.02
2022-12-01T23:36:24.457Z,5.11
2022-12-01T23:38:58.990Z,5.00
2022-12-01T23:41:41.363Z,4.76
2022-12-01T23:44:39.130Z,4.83
2022-12-01T23:47:24.158Z,4.78
2022-12-01T23:50:03.769Z,4.59
2022-12-01T23:52:37.280Z,4.67
2022-12-01T23:55:21.865Z,4.77
2022-12-01T23:57:50.494Z,4.67
